TimeCST,TemperatureF,Dew PointF,Humidity,Sea Level PressureIn,VisibilityMPH,Wind Direction,Wind SpeedMPH,Gust SpeedMPH,PrecipitationIn,Events,Conditions,WindDirDegrees,DateUTC
12:53 AM,39.9,37.0,89,29.82,10.0,Calm,Calm,-,N/A,,Clear,0,2014-01-27 06:53:00
1:53 AM,39.0,36.0,89,29.83,10.0,Calm,Calm,-,N/A,,Clear,0,2014-01-27 07:53:00
2:53 AM,43.0,39.0,86,29.84,10.0,SW,3.5,-,N/A,,Clear,230,2014-01-27 08:53:00
3:53 AM,33.1,30.9,92,29.86,10.0,Calm,Calm,-,N/A,,Clear,0,2014-01-27 09:53:00
4:53 AM,46.9,39.0,74,29.86,10.0,WNW,8.1,-,N/A,,Clear,290,2014-01-27 10:53:00
5:53 AM,46.9,36.0,66,29.90,10.0,NNW,6.9,-,N/A,,Clear,330,2014-01-27 11:53:00
6:53 AM,46.9,33.1,59,29.96,10.0,North,13.8,-,N/A,,Partly Cloudy,360,2014-01-27 12:53:00
7:53 AM,48.9,34.0,56,30.01,10.0,North,19.6,28.8,N/A,,Partly Cloudy,360,2014-01-27 13:53:00
8:53 AM,50.0,32.0,50,30.06,10.0,North,26.5,36.8,N/A,,Partly Cloudy,360,2014-01-27 14:53:00
9:53 AM,48.0,27.0,44,30.14,10.0,North,24.2,34.5,N/A,,Scattered Clouds,360,2014-01-27 15:53:00
10:53 AM,48.9,24.1,38,30.19,10.0,North,24.2,34.5,N/A,,Mostly Cloudy,360,2014-01-27 16:53:00
11:53 AM,50.0,21.0,32,30.17,10.0,North,25.3,28.8,N/A,,Mostly Cloudy,10,2014-01-27 17:53:00
12:53 PM,50.0,19.0,29,30.13,10.0,NNE,26.5,32.2,N/A,,Mostly Cloudy,20,2014-01-27 18:53:00
1:53 PM,46.9,16.0,29,30.12,10.0,North,21.9,32.2,N/A,,Mostly Cloudy,360,2014-01-27 19:53:00
2:53 PM,46.9,15.1,28,30.12,10.0,NNE,21.9,32.2,N/A,,Overcast,20,2014-01-27 20:53:00
3:53 PM,46.0,15.1,29,30.14,10.0,North,17.3,26.5,N/A,,Overcast,360,2014-01-27 21:53:00
4:53 PM,44.1,12.9,28,30.15,10.0,NNE,19.6,28.8,N/A,,Overcast,20,2014-01-27 22:53:00
5:53 PM,43.0,12.9,30,30.17,10.0,North,19.6,28.8,N/A,,Overcast,10,2014-01-27 23:53:00
6:53 PM,42.1,10.9,28,30.18,10.0,North,16.1,-,N/A,,Mostly Cloudy,10,2014-01-28 00:53:00
7:53 PM,41.0,9.0,27,30.21,10.0,NNE,20.7,-,N/A,,Overcast,20,2014-01-28 01:53:00
8:53 PM,39.9,8.1,27,30.24,10.0,North,17.3,-,N/A,,Overcast,360,2014-01-28 02:53:00
9:53 PM,39.0,9.0,29,30.23,10.0,NNE,18.4,-,0.00,,Overcast,20,2014-01-28 03:53:00
10:53 PM,35.1,19.9,54,30.26,10.0,North,17.3,-,0.00,Rain,Light Rain,360,2014-01-28 04:53:00
11:27 PM,33.8,21.2,60,30.24,10.0,NNE,16.1,-,0.00,Rain,Light Rain,20,2014-01-28 05:27:00
11:45 PM,33.8,21.2,60,30.25,10.0,North,9.2,-,0.01,Rain,Light Rain,360,2014-01-28 05:45:00
11:53 PM,33.1,21.9,64,30.27,10.0,North,11.5,-,0.01,Rain,Light Rain,360,2014-01-28 05:53:00